Time;durP1;ratioP1;P1;durP2;ratioP2;P2;SDS_P1;SDS_P2;PMS_P1;PMS_P2;Temp;Humidity;BMP_temperature;BMP_pressure;BME280_temperature;BME280_humidity;BME280_pressure;Samples;Min_cycle;Max_cycle;Signal;HPM_P1;HPM_P2
2021/03/29 00:02:19;;;;;;;;;;;11.90;70.50;;;;;;5026396;28;20016;-58
2021/03/29 00:04:45;;;;;;;;;;;11.90;70.70;;;;;;5024069;28;20292;-56
2021/03/29 00:07:10;;;;;;;;;;;11.80;70.60;;;;;;5027994;28;20015;-57
2021/03/29 00:09:36;;;;;;;;;;;11.90;70.70;;;;;;5023557;28;21086;-60
2021/03/29 00:12:02;;;;;;;;;;;11.80;70.90;;;;;;5026969;28;20340;-61
2021/03/29 00:14:27;;;;;;;;;;;11.80;70.80;;;;;;5025730;28;19917;-57
2021/03/29 00:16:53;;;;;;;;;;;11.80;70.80;;;;;;5025495;28;19917;-56
2021/03/29 00:19:18;;;;;;;;;;;11.80;70.90;;;;;;5025191;28;19940;-57
2021/03/29 00:21:44;;;;;;;;;;;11.80;70.90;;;;;;5027028;28;19964;-56
2021/03/29 00:24:09;;;;;;;;;;;11.70;70.90;;;;;;5024926;28;20403;-58
2021/03/29 00:26:35;;;;;;;;;;;11.80;70.90;;;;;;5027672;28;19909;-56
2021/03/29 00:29:01;;;;;;;;;;;11.70;70.90;;;;;;5027047;28;19917;-59
2021/03/29 00:31:26;;;;;;;;;;;11.70;71.00;;;;;;5027441;28;20372;-56
2021/03/29 00:33:52;;;;;;;;;;;11.70;70.90;;;;;;5026932;28;19913;-57
2021/03/29 00:36:18;;;;;;;;;;;11.70;71.10;;;;;;5023884;28;19932;-60
2021/03/29 00:38:43;;;;;;;;;;;11.60;71.00;;;;;;5025825;28;20396;-59
2021/03/29 00:41:09;;;;;;;;;;;11.60;71.10;;;;;;5025873;28;19913;-60
2021/03/29 00:43:36;;;;;;;;;;;11.60;71.00;;;;;;5008526;28;19917;-59
2021/03/29 00:46:01;;;;;;;;;;;11.60;71.00;;;;;;5024167;28;19913;-59
2021/03/29 00:48:27;;;;;;;;;;;11.60;71.00;;;;;;5024564;28;19943;-61
2021/03/29 00:51:01;;;;;;;;;;;11.60;71.00;;;;;;5024937;28;20008;-59
2021/03/29 00:53:26;;;;;;;;;;;11.60;71.10;;;;;;5027920;28;19913;-60
2021/03/29 00:55:52;;;;;;;;;;;11.50;71.20;;;;;;5026492;28;19963;-57
2021/03/29 00:58:20;;;;;;;;;;;11.50;71.20;;;;;;5024668;28;19963;-58
2021/03/29 01:00:52;;;;;;;;;;;11.40;71.10;;;;;;5024939;28;19917;-57
2021/03/29 01:03:20;;;;;;;;;;;11.50;71.30;;;;;;5009322;28;19915;-59
2021/03/29 01:05:46;;;;;;;;;;;11.40;71.40;;;;;;5022566;28;19923;-61
2021/03/29 01:08:14;;;;;;;;;;;11.40;71.40;;;;;;5026041;28;19951;-59
2021/03/29 01:10:40;;;;;;;;;;;11.40;71.40;;;;;;5024519;28;19955;-57
2021/03/29 01:13:07;;;;;;;;;;;11.40;71.40;;;;;;5024737;28;19921;-57
2021/03/29 01:15:32;;;;;;;;;;;11.30;71.40;;;;;;5024953;28;19924;-56
2021/03/29 01:17:57;;;;;;;;;;;11.30;71.40;;;;;;5027921;28;19983;-59
2021/03/29 01:20:23;;;;;;;;;;;11.30;71.40;;;;;;5025294;28;20652;-57
2021/03/29 01:22:49;;;;;;;;;;;11.30;72.20;;;;;;5027705;28;19935;-56
2021/03/29 01:25:22;;;;;;;;;;;11.20;71.60;;;;;;5023284;28;20053;-60
2021/03/29 01:27:48;;;;;;;;;;;11.30;71.80;;;;;;5027205;28;19963;-59
2021/03/29 01:30:14;;;;;;;;;;;11.20;71.70;;;;;;5023906;28;20271;-59
2021/03/29 01:32:39;;;;;;;;;;;11.20;71.60;;;;;;5008395;28;19914;-56
2021/03/29 01:35:07;;;;;;;;;;;11.20;71.70;;;;;;5026132;28;19940;-60
2021/03/29 01:37:33;;;;;;;;;;;11.20;71.90;;;;;;5026643;28;20287;-59
2021/03/29 01:39:58;;;;;;;;;;;11.20;71.80;;;;;;5022686;28;19925;-59
2021/03/29 01:42:24;;;;;;;;;;;11.10;71.80;;;;;;5027241;28;19971;-57
2021/03/29 01:44:49;;;;;;;;;;;11.10;72.50;;;;;;5026275;28;19913;-58
2021/03/29 01:47:15;;;;;;;;;;;11.10;71.90;;;;;;5024189;28;20383;-58
2021/03/29 01:49:40;;;;;;;;;;;11.10;71.90;;;;;;5023875;28;19971;-60
2021/03/29 01:52:06;;;;;;;;;;;11.00;71.90;;;;;;5024832;28;20269;-60
2021/03/29 01:54:32;;;;;;;;;;;11.00;72.00;;;;;;5007278;28;19913;-59
2021/03/29 01:56:58;;;;;;;;;;;11.00;72.10;;;;;;5026849;28;20017;-58
2021/03/29 01:59:23;;;;;;;;;;;11.00;71.90;;;;;;5026026;28;19992;-59
2021/03/29 02:01:49;;;;;;;;;;;11.00;72.00;;;;;;5025377;28;19916;-59
2021/03/29 02:04:14;;;;;;;;;;;11.00;72.00;;;;;;5023302;28;19928;-58
2021/03/29 02:06:40;;;;;;;;;;;10.90;72.10;;;;;;5022397;28;19917;-55
2021/03/29 02:09:06;;;;;;;;;;;10.90;72.00;;;;;;5024660;28;20290;-59
2021/03/29 02:11:31;;;;;;;;;;;10.90;72.10;;;;;;5026018;28;19912;-60
2021/03/29 02:13:57;;;;;;;;;;;10.90;72.10;;;;;;5025072;28;19913;-59
2021/03/29 02:16:22;;;;;;;;;;;10.90;72.10;;;;;;5022834;28;19913;-56
2021/03/29 02:18:48;;;;;;;;;;;10.90;72.10;;;;;;5023416;28;19909;-57
2021/03/29 02:21:18;;;;;;;;;;;10.80;72.10;;;;;;5023258;28;20287;-59
2021/03/29 02:23:48;;;;;;;;;;;10.80;72.20;;;;;;5024438;28;19913;-60
2021/03/29 02:26:14;;;;;;;;;;;10.80;72.40;;;;;;5026873;28;19918;-58
2021/03/29 02:28:40;;;;;;;;;;;10.70;72.30;;;;;;5022314;28;19956;-58
2021/03/29 02:31:05;;;;;;;;;;;10.70;72.30;;;;;;5023371;28;19999;-58
2021/03/29 02:33:31;;;;;;;;;;;10.70;72.30;;;;;;5025397;28;19913;-58
2021/03/29 02:35:56;;;;;;;;;;;10.70;72.40;;;;;;5011372;28;20338;-59
2021/03/29 02:38:22;;;;;;;;;;;10.70;72.30;;;;;;5027904;28;19917;-58
2021/03/29 02:40:48;;;;;;;;;;;10.70;72.30;;;;;;5030791;28;20063;-59
2021/03/29 02:43:14;;;;;;;;;;;10.70;72.40;;;;;;5028257;28;19924;-56
2021/03/29 02:45:43;;;;;;;;;;;10.60;72.40;;;;;;5025730;28;19925;-56
2021/03/29 02:48:09;;;;;;;;;;;10.60;72.40;;;;;;5027303;28;20012;-57
2021/03/29 02:50:36;;;;;;;;;;;10.60;72.50;;;;;;5027574;28;19924;-57
2021/03/29 02:53:02;;;;;;;;;;;10.60;72.60;;;;;;5028679;28;19924;-61
2021/03/29 02:55:28;;;;;;;;;;;10.50;72.50;;;;;;5026736;28;19987;-59
2021/03/29 02:57:53;;;;;;;;;;;10.50;72.60;;;;;;5010239;28;19949;-60
2021/03/29 03:00:20;;;;;;;;;;;10.50;72.50;;;;;;5030456;28;19909;-57
2021/03/29 03:02:46;;;;;;;;;;;10.50;72.60;;;;;;5027571;28;20418;-60
2021/03/29 03:05:11;;;;;;;;;;;10.50;72.60;;;;;;5029430;28;19913;-59
2021/03/29 03:07:37;;;;;;;;;;;10.40;72.70;;;;;;5029435;28;20006;-57
2021/03/29 03:10:09;;;;;;;;;;;10.40;72.70;;;;;;5026991;28;19914;-57
2021/03/29 03:12:35;;;;;;;;;;;10.40;72.70;;;;;;5027268;28;19917;-60
2021/03/29 03:15:01;;;;;;;;;;;10.40;72.80;;;;;;5030093;28;20364;-56
2021/03/29 03:17:26;;;;;;;;;;;10.40;72.90;;;;;;5027673;28;19916;-57
2021/03/29 03:19:52;;;;;;;;;;;10.30;72.80;;;;;;5044104;28;19913;-59
2021/03/29 03:22:17;;;;;;;;;;;10.30;72.80;;;;;;5028101;28;19916;-57
2021/03/29 03:24:43;;;;;;;;;;;10.30;72.70;;;;;;5008735;28;20442;-57
2021/03/29 03:27:08;;;;;;;;;;;10.30;72.80;;;;;;5028830;28;19928;-57
2021/03/29 03:29:38;;;;;;;;;;;10.30;72.80;;;;;;5026639;28;19913;-59
2021/03/29 03:32:04;;;;;;;;;;;10.30;72.90;;;;;;5026888;28;19909;-58
2021/03/29 03:34:29;;;;;;;;;;;10.20;72.90;;;;;;5042720;28;19964;-59
2021/03/29 03:36:55;;;;;;;;;;;10.20;72.80;;;;;;5008557;28;19952;-61
2021/03/29 03:39:20;;;;;;;;;;;10.20;73.00;;;;;;5026494;28;20179;-61
2021/03/29 03:41:46;;;;;;;;;;;10.10;73.00;;;;;;5028423;28;20368;-58
2021/03/29 03:44:11;;;;;;;;;;;10.20;73.00;;;;;;5029009;28;19917;-59
2021/03/29 03:46:40;;;;;;;;;;;10.10;73.00;;;;;;5025907;28;20505;-57
2021/03/29 03:49:08;;;;;;;;;;;10.10;73.10;;;;;;5027157;28;19913;-58
2021/03/29 03:51:33;;;;;;;;;;;10.10;72.90;;;;;;5025313;28;20388;-59
2021/03/29 03:53:59;;;;;;;;;;;10.10;72.90;;;;;;5044272;28;19917;-58
2021/03/29 03:56:24;;;;;;;;;;;10.10;73.10;;;;;;5026253;28;20348;-59
2021/03/29 03:58:51;;;;;;;;;;;10.10;73.10;;;;;;5026954;28;19920;-58
2021/03/29 04:01:16;;;;;;;;;;;10.10;73.20;;;;;;5025296;28;19924;-57
2021/03/29 04:03:41;;;;;;;;;;;10.00;73.10;;;;;;5024073;28;19913;-57
2021/03/29 04:06:07;;;;;;;;;;;10.00;73.20;;;;;;5026974;28;20055;-57
2021/03/29 04:08:32;;;;;;;;;;;10.00;73.20;;;;;;5028210;28;20440;-59
2021/03/29 04:10:59;;;;;;;;;;;10.00;73.10;;;;;;5025286;28;19913;-59
2021/03/29 04:15:50;;;;;;;;;;;10.00;73.20;;;;;;5026797;28;19924;-60
2021/03/29 04:18:16;;;;;;;;;;;10.00;73.20;;;;;;5027335;28;19909;-59
2021/03/29 04:20:41;;;;;;;;;;;9.90;73.10;;;;;;5027874;28;20404;-61
2021/03/29 04:23:07;;;;;;;;;;;9.90;73.20;;;;;;5028284;28;19940;-57
2021/03/29 04:25:32;;;;;;;;;;;9.90;73.30;;;;;;5027038;28;19932;-56
2021/03/29 04:27:58;;;;;;;;;;;9.90;73.30;;;;;;5026715;28;20202;-60
2021/03/29 04:30:23;;;;;;;;;;;9.80;73.30;;;;;;5025317;28;19960;-60
2021/03/29 04:32:50;;;;;;;;;;;9.80;73.30;;;;;;5027343;28;19916;-59
2021/03/29 04:35:16;;;;;;;;;;;9.80;73.30;;;;;;5026671;28;19982;-57
2021/03/29 04:37:42;;;;;;;;;;;9.80;73.40;;;;;;5028509;28;19996;-58
2021/03/29 04:40:08;;;;;;;;;;;9.80;73.50;;;;;;5025406;28;20056;-58
2021/03/29 04:42:33;;;;;;;;;;;9.80;73.40;;;;;;5006992;28;19959;-56
2021/03/29 04:44:59;;;;;;;;;;;9.80;73.40;;;;;;5024244;28;20538;-57
2021/03/29 04:47:24;;;;;;;;;;;9.70;73.40;;;;;;5027429;28;19909;-58
2021/03/29 04:49:49;;;;;;;;;;;9.70;73.60;;;;;;5027445;28;20311;-59
2021/03/29 04:52:15;;;;;;;;;;;9.70;73.50;;;;;;5025457;28;19920;-57
2021/03/29 04:54:41;;;;;;;;;;;9.70;73.50;;;;;;5024837;28;20016;-58
2021/03/29 04:57:06;;;;;;;;;;;9.70;73.60;;;;;;5008296;28;19917;-59
2021/03/29 04:59:32;;;;;;;;;;;9.60;73.60;;;;;;5026996;28;19945;-59
2021/03/29 05:01:58;;;;;;;;;;;9.60;73.60;;;;;;5042254;28;19913;-59
2021/03/29 05:04:23;;;;;;;;;;;9.70;73.70;;;;;;5026400;28;20395;-58
2021/03/29 05:06:48;;;;;;;;;;;9.60;73.60;;;;;;5025613;28;19909;-58
2021/03/29 05:09:14;;;;;;;;;;;9.60;73.70;;;;;;5024997;28;20270;-56
2021/03/29 05:12:16;;;;;;;;;;;9.60;73.70;;;;;;5027159;28;19928;-56
2021/03/29 05:14:31;;;;;;;;;;;9.60;73.70;;;;;;5024563;28;19917;-58
2021/03/29 05:16:56;;;;;;;;;;;9.50;73.70;;;;;;5026253;28;19909;-56
2021/03/29 05:19:22;;;;;;;;;;;9.50;73.80;;;;;;5025936;28;19913;-61
2021/03/29 05:21:47;;;;;;;;;;;9.50;73.90;;;;;;5024858;28;19918;-58
2021/03/29 05:24:13;;;;;;;;;;;9.40;73.90;;;;;;5024992;28;20305;-58
2021/03/29 05:26:38;;;;;;;;;;;9.50;74.10;;;;;;5024600;28;19992;-58
2021/03/29 05:29:04;;;;;;;;;;;9.40;74.00;;;;;;5027086;28;20392;-58
2021/03/29 05:31:29;;;;;;;;;;;9.40;74.00;;;;;;5025089;28;20010;-57
2021/03/29 05:33:55;;;;;;;;;;;9.40;74.00;;;;;;5024850;28;20413;-58
2021/03/29 05:36:20;;;;;;;;;;;9.40;74.10;;;;;;5023098;28;19913;-57
2021/03/29 05:38:46;;;;;;;;;;;9.40;74.10;;;;;;5027177;28;19921;-56
2021/03/29 05:41:11;;;;;;;;;;;9.40;74.10;;;;;;5025714;28;20296;-60
2021/03/29 05:43:40;;;;;;;;;;;9.40;74.10;;;;;;5026490;28;19916;-59
2021/03/29 05:46:05;;;;;;;;;;;9.40;74.10;;;;;;5024736;28;19913;-56
2021/03/29 05:48:31;;;;;;;;;;;9.40;74.00;;;;;;5024290;28;19917;-57
2021/03/29 05:50:59;;;;;;;;;;;9.30;74.00;;;;;;5026184;28;19920;-59
2021/03/29 05:53:24;;;;;;;;;;;9.30;74.10;;;;;;5026601;28;19909;-60
2021/03/29 05:55:51;;;;;;;;;;;9.30;74.10;;;;;;5025531;28;19978;-61
2021/03/29 06:00:45;;;;;;;;;;;9.30;74.10;;;;;;5024585;28;19917;-59
2021/03/29 06:03:20;;;;;;;;;;;9.30;74.00;;;;;;5023626;28;20005;-57
2021/03/29 06:05:46;;;;;;;;;;;9.30;74.00;;;;;;5006872;28;19927;-57
2021/03/29 06:08:11;;;;;;;;;;;9.30;74.00;;;;;;5030053;28;19913;-59
2021/03/29 06:10:37;;;;;;;;;;;9.30;74.00;;;;;;5029500;28;19920;-58
2021/03/29 06:13:15;;;;;;;;;;;9.30;74.00;;;;;;5029592;28;19970;-60
2021/03/29 06:15:41;;;;;;;;;;;9.30;74.00;;;;;;5028388;28;19972;-57
2021/03/29 06:18:09;;;;;;;;;;;9.30;74.00;;;;;;5011841;28;19917;-59
2021/03/29 06:20:35;;;;;;;;;;;9.20;74.00;;;;;;5029932;28;20342;-59
2021/03/29 06:23:00;;;;;;;;;;;9.20;74.10;;;;;;5011679;28;19913;-57
2021/03/29 06:25:26;;;;;;;;;;;9.20;74.10;;;;;;5026654;28;19913;-57
2021/03/29 06:27:56;;;;;;;;;;;9.20;74.10;;;;;;5024483;28;19955;-60
2021/03/29 06:30:28;;;;;;;;;;;9.20;74.00;;;;;;5025495;28;20765;-60
2021/03/29 06:33:07;;;;;;;;;;;9.30;74.10;;;;;;5029135;28;19910;-57
2021/03/29 06:35:42;;;;;;;;;;;9.20;74.10;;;;;;5027355;28;20435;-58
2021/03/29 06:38:14;;;;;;;;;;;9.20;74.10;;;;;;5025852;28;19925;-58
2021/03/29 06:40:52;;;;;;;;;;;9.20;74.20;;;;;;5028539;28;19921;-60
2021/03/29 06:43:21;;;;;;;;;;;9.20;74.10;;;;;;5027272;28;20285;-60
2021/03/29 06:45:47;;;;;;;;;;;9.20;74.10;;;;;;5027318;28;19932;-56
2021/03/29 06:48:20;;;;;;;;;;;9.20;74.20;;;;;;5027314;28;19913;-60
2021/03/29 06:50:45;;;;;;;;;;;9.10;74.10;;;;;;5042427;28;19913;-58
2021/03/29 06:53:18;;;;;;;;;;;9.10;74.20;;;;;;5026951;28;19917;-59
2021/03/29 06:55:45;;;;;;;;;;;9.10;74.20;;;;;;5026534;28;19920;-59
2021/03/29 06:58:10;;;;;;;;;;;9.20;74.30;;;;;;5028572;28;20007;-59
2021/03/29 07:00:36;;;;;;;;;;;9.10;74.30;;;;;;5027103;28;20353;-61
2021/03/29 07:03:03;;;;;;;;;;;9.10;74.20;;;;;;5028615;28;19947;-59
2021/03/29 07:05:29;;;;;;;;;;;9.10;74.10;;;;;;5026652;28;20008;-59
2021/03/29 07:07:54;;;;;;;;;;;9.10;74.20;;;;;;5025590;28;20003;-57
2021/03/29 07:10:20;;;;;;;;;;;9.10;74.10;;;;;;5029169;28;19957;-57
2021/03/29 07:12:46;;;;;;;;;;;9.10;74.20;;;;;;5029172;28;19913;-61
2021/03/29 07:15:13;;;;;;;;;;;9.10;74.40;;;;;;5010328;28;19910;-57
2021/03/29 07:17:39;;;;;;;;;;;9.10;74.40;;;;;;5027217;28;20343;-57
2021/03/29 07:20:06;;;;;;;;;;;9.10;74.50;;;;;;5026616;28;20265;-58
2021/03/29 07:22:32;;;;;;;;;;;9.10;74.50;;;;;;5028939;28;19917;-60
2021/03/29 07:25:00;;;;;;;;;;;9.10;74.60;;;;;;5026823;28;19913;-58
2021/03/29 07:27:26;;;;;;;;;;;9.10;74.60;;;;;;5026880;28;19956;-59
2021/03/29 07:29:51;;;;;;;;;;;9.20;74.70;;;;;;5007476;28;20343;-60
2021/03/29 07:32:26;;;;;;;;;;;9.10;74.60;;;;;;5023142;28;20306;-56
2021/03/29 07:34:51;;;;;;;;;;;9.10;74.60;;;;;;5028260;28;19913;-60
2021/03/29 07:37:36;;;;;;;;;;;9.10;74.70;;;;;;5027100;28;19997;-61
2021/03/29 07:40:28;;;;;;;;;;;9.10;74.70;;;;;;5043455;28;19952;-57
2021/03/29 07:42:54;;;;;;;;;;;9.10;74.70;;;;;;5027513;28;20341;-56
2021/03/29 07:45:20;;;;;;;;;;;9.10;74.70;;;;;;5023206;28;19956;-61
2021/03/29 07:47:55;;;;;;;;;;;9.10;74.70;;;;;;5024254;28;20009;-60
2021/03/29 07:50:24;;;;;;;;;;;9.10;74.70;;;;;;5024124;28;19930;-59
2021/03/29 07:52:50;;;;;;;;;;;9.10;74.70;;;;;;5024319;28;19909;-58
2021/03/29 07:55:17;;;;;;;;;;;9.10;74.60;;;;;;5026144;28;19921;-59
2021/03/29 07:57:46;;;;;;;;;;;9.10;74.50;;;;;;5024786;28;19909;-57
2021/03/29 08:00:25;;;;;;;;;;;9.10;74.50;;;;;;5024291;28;19921;-57
2021/03/29 08:02:51;;;;;;;;;;;9.10;74.50;;;;;;5025589;28;20137;-61
2021/03/29 08:05:35;;;;;;;;;;;9.10;74.40;;;;;;5018824;28;19917;-60
2021/03/29 08:08:03;;;;;;;;;;;9.10;74.40;;;;;;5011727;28;20183;-57
2021/03/29 08:10:47;;;;;;;;;;;9.10;74.50;;;;;;5022849;28;19917;-58
2021/03/29 08:13:12;;;;;;;;;;;9.20;74.50;;;;;;5024742;28;19914;-56
2021/03/29 08:15:56;;;;;;;;;;;9.20;74.40;;;;;;5025980;28;19940;-56
2021/03/29 08:18:22;;;;;;;;;;;9.20;74.40;;;;;;5026469;28;19909;-56
2021/03/29 08:20:53;;;;;;;;;;;9.20;74.30;;;;;;5025330;28;19913;-59
2021/03/29 08:23:46;;;;;;;;;;;9.20;74.30;;;;;;5022211;28;20277;-57
2021/03/29 08:26:17;;;;;;;;;;;9.20;74.30;;;;;;5020706;28;19936;-58
2021/03/29 08:29:02;;;;;;;;;;;9.20;74.20;;;;;;5022357;28;19917;-57
2021/03/29 08:31:46;;;;;;;;;;;9.20;74.20;;;;;;5013043;28;19921;-59
2021/03/29 08:34:12;;;;;;;;;;;9.20;74.10;;;;;;5021686;28;20024;-58
2021/03/29 08:36:38;;;;;;;;;;;9.20;74.00;;;;;;5026199;28;20357;-60
2021/03/29 08:39:03;;;;;;;;;;;9.20;74.00;;;;;;5017805;28;20444;-57
2021/03/29 08:41:29;;;;;;;;;;;9.20;73.90;;;;;;5008900;28;20144;-58
2021/03/29 08:43:54;;;;;;;;;;;9.20;73.90;;;;;;5023819;28;20019;-57
2021/03/29 08:46:20;;;;;;;;;;;9.20;73.80;;;;;;5022161;28;20365;-59
2021/03/29 08:48:45;;;;;;;;;;;9.30;73.90;;;;;;5021851;28;19921;-58
2021/03/29 08:51:21;;;;;;;;;;;9.30;73.90;;;;;;5016561;28;19949;-60
2021/03/29 08:53:46;;;;;;;;;;;9.30;73.90;;;;;;5005110;28;19917;-59
2021/03/29 08:56:11;;;;;;;;;;;9.30;73.90;;;;;;5023558;28;19920;-60
2021/03/29 08:58:37;;;;;;;;;;;9.30;73.90;;;;;;5023776;28;19921;-58
2021/03/29 09:01:02;;;;;;;;;;;9.30;73.90;;;;;;5017572;28;19917;-60
2021/03/29 09:03:28;;;;;;;;;;;9.30;73.90;;;;;;5021716;28;19913;-58
2021/03/29 09:05:53;;;;;;;;;;;9.40;74.00;;;;;;5017896;28;19917;-56
2021/03/29 09:08:22;;;;;;;;;;;9.40;73.80;;;;;;5025648;28;19949;-59
2021/03/29 09:10:48;;;;;;;;;;;9.40;73.80;;;;;;5016998;28;19913;-57
2021/03/29 09:13:14;;;;;;;;;;;9.40;73.80;;;;;;5025185;28;19928;-61
2021/03/29 09:15:40;;;;;;;;;;;9.40;73.90;;;;;;5037039;28;19913;-57
2021/03/29 09:18:06;;;;;;;;;;;9.50;73.80;;;;;;5021724;28;19917;-59
2021/03/29 09:20:35;;;;;;;;;;;9.50;73.80;;;;;;5020215;28;19917;-57
2021/03/29 09:23:01;;;;;;;;;;;9.50;73.70;;;;;;5019270;28;20077;-61
2021/03/29 09:25:30;;;;;;;;;;;9.50;73.70;;;;;;5018293;28;19957;-58
2021/03/29 09:28:36;;;;;;;;;;;9.50;73.60;;;;;;5015837;28;19913;-60
2021/03/29 09:31:02;;;;;;;;;;;9.60;73.70;;;;;;5021661;28;19921;-60
2021/03/29 09:33:27;;;;;;;;;;;9.60;73.80;;;;;;5007625;28;19948;-59
2021/03/29 09:35:53;;;;;;;;;;;9.60;73.80;;;;;;5017355;28;20496;-58
2021/03/29 09:38:35;;;;;;;;;;;9.60;73.70;;;;;;5020044;28;19916;-58
2021/03/29 09:41:01;;;;;;;;;;;9.60;73.60;;;;;;5020845;28;20020;-59
2021/03/29 09:43:26;;;;;;;;;;;9.70;73.70;;;;;;5024392;28;19928;-59
2021/03/29 09:46:01;;;;;;;;;;;9.70;73.60;;;;;;5023181;28;19917;-58
2021/03/29 09:48:29;;;;;;;;;;;9.70;73.40;;;;;;5024701;28;20380;-59
2021/03/29 09:50:55;;;;;;;;;;;9.70;73.50;;;;;;5004898;28;19913;-57
2021/03/29 09:53:23;;;;;;;;;;;9.80;73.50;;;;;;5021544;28;20084;-57
2021/03/29 09:55:55;;;;;;;;;;;9.80;73.50;;;;;;5020945;28;19921;-59
2021/03/29 09:58:29;;;;;;;;;;;9.80;73.30;;;;;;5019798;28;20122;-59
2021/03/29 10:00:55;;;;;;;;;;;9.80;73.20;;;;;;5023926;28;19920;-60
2021/03/29 10:03:21;;;;;;;;;;;9.80;73.10;;;;;;5023065;28;20008;-57
2021/03/29 10:05:47;;;;;;;;;;;9.80;73.00;;;;;;5023466;28;20366;-61
2021/03/29 10:08:23;;;;;;;;;;;9.90;73.00;;;;;;5024069;28;19913;-58
2021/03/29 10:10:56;;;;;;;;;;;9.90;73.00;;;;;;5021152;28;19935;-57
2021/03/29 10:13:29;;;;;;;;;;;10.00;73.00;;;;;;5024642;28;20016;-56
2021/03/29 10:15:55;;;;;;;;;;;10.00;72.90;;;;;;5027811;28;20071;-59
2021/03/29 10:18:20;;;;;;;;;;;10.00;72.80;;;;;;5023814;28;19917;-59
2021/03/29 10:20:46;;;;;;;;;;;10.00;72.80;;;;;;5022026;28;19925;-59
2021/03/29 10:23:21;;;;;;;;;;;10.10;72.90;;;;;;5019377;28;19928;-57
2021/03/29 10:26:10;;;;;;;;;;;10.10;72.70;;;;;;5018063;28;19959;-57
2021/03/29 10:28:36;;;;;;;;;;;10.10;72.70;;;;;;5016403;28;19917;-60
2021/03/29 10:31:02;;;;;;;;;;;10.20;72.60;;;;;;5017092;28;20012;-59
2021/03/29 10:33:27;;;;;;;;;;;10.20;72.50;;;;;;5019322;28;20056;-56
2021/03/29 10:35:52;;;;;;;;;;;10.30;72.40;;;;;;5020111;28;19972;-60
2021/03/29 10:38:18;;;;;;;;;;;10.30;72.40;;;;;;5021934;28;19917;-58
2021/03/29 10:40:43;;;;;;;;;;;10.30;72.40;;;;;;5023084;28;19928;-60
2021/03/29 10:43:09;;;;;;;;;;;10.40;72.20;;;;;;5022365;28;20026;-60
2021/03/29 10:45:35;;;;;;;;;;;10.40;72.10;;;;;;5022147;28;20386;-58
2021/03/29 10:48:00;;;;;;;;;;;10.40;71.90;;;;;;5024446;28;19968;-59
2021/03/29 10:50:25;;;;;;;;;;;10.50;71.80;;;;;;5022870;28;19974;-57
2021/03/29 10:52:51;;;;;;;;;;;10.60;72.40;;;;;;5026318;28;19917;-56
2021/03/29 10:55:16;;;;;;;;;;;10.60;71.70;;;;;;5028356;28;20073;-58
2021/03/29 10:57:42;;;;;;;;;;;10.60;71.50;;;;;;5028061;28;19916;-58
2021/03/29 11:00:08;;;;;;;;;;;10.70;71.40;;;;;;5026563;28;19948;-59
2021/03/29 11:02:35;;;;;;;;;;;10.70;71.30;;;;;;5026208;28;20702;-56
2021/03/29 11:05:00;;;;;;;;;;;10.80;71.20;;;;;;5026262;28;19932;-58
2021/03/29 11:07:26;;;;;;;;;;;10.80;71.10;;;;;;5027510;28;20531;-59
2021/03/29 11:09:51;;;;;;;;;;;10.90;71.00;;;;;;5027076;28;19913;-57
2021/03/29 11:12:17;;;;;;;;;;;10.90;70.90;;;;;;5024799;28;19995;-58
2021/03/29 11:14:42;;;;;;;;;;;11.00;70.80;;;;;;5025690;28;20428;-57
2021/03/29 11:17:10;;;;;;;;;;;11.00;70.70;;;;;;5024731;28;19913;-56
2021/03/29 11:19:35;;;;;;;;;;;11.10;70.70;;;;;;5021699;28;20392;-57
2021/03/29 11:22:01;;;;;;;;;;;11.10;70.40;;;;;;5025378;28;19921;-60
2021/03/29 11:24:26;;;;;;;;;;;11.20;70.60;;;;;;5023296;28;20292;-58
2021/03/29 11:26:52;;;;;;;;;;;11.20;70.40;;;;;;5024286;28;19917;-60
2021/03/29 11:29:17;;;;;;;;;;;11.30;70.10;;;;;;5024956;28;19921;-59
2021/03/29 11:31:43;;;;;;;;;;;11.30;70.00;;;;;;5024851;28;19920;-59
2021/03/29 11:34:08;;;;;;;;;;;11.40;70.00;;;;;;5026181;28;19971;-57
2021/03/29 11:36:34;;;;;;;;;;;11.40;69.80;;;;;;5026564;28;19980;-59
2021/03/29 11:38:59;;;;;;;;;;;11.50;69.90;;;;;;5025198;28;20401;-57
2021/03/29 11:41:26;;;;;;;;;;;11.60;69.80;;;;;;5020342;28;19929;-57
2021/03/29 11:43:52;;;;;;;;;;;11.60;69.50;;;;;;5025014;28;20111;-58
2021/03/29 11:46:17;;;;;;;;;;;11.70;69.40;;;;;;5024527;28;19917;-59
2021/03/29 11:48:43;;;;;;;;;;;11.80;69.20;;;;;;5023887;28;20605;-59
2021/03/29 11:51:08;;;;;;;;;;;11.80;69.00;;;;;;5023139;28;19913;-59
2021/03/29 11:53:35;;;;;;;;;;;11.90;68.90;;;;;;5023086;28;19913;-59
2021/03/29 11:56:01;;;;;;;;;;;12.00;68.70;;;;;;5026788;28;19917;-60
2021/03/29 11:58:26;;;;;;;;;;;12.00;68.60;;;;;;5025518;28;20375;-59
2021/03/29 12:01:00;;;;;;;;;;;12.10;68.50;;;;;;5025935;28;19932;-59
2021/03/29 12:06:01;;;;;;;;;;;12.30;68.20;;;;;;5039895;28;19921;-58
2021/03/29 12:08:46;;;;;;;;;;;12.30;68.10;;;;;;5025309;28;19913;-60
2021/03/29 12:14:09;;;;;;;;;;;12.40;67.70;;;;;;4991920;28;19920;-57
2021/03/29 12:16:39;;;;;;;;;;;12.50;67.80;;;;;;5022519;28;19913;-59
2021/03/29 12:19:04;;;;;;;;;;;12.60;67.80;;;;;;5023190;28;19917;-60
2021/03/29 12:21:30;;;;;;;;;;;12.70;67.60;;;;;;5023382;28;19921;-57
2021/03/29 12:23:58;;;;;;;;;;;12.70;67.70;;;;;;5023336;28;20007;-57
2021/03/29 12:26:24;;;;;;;;;;;12.80;67.70;;;;;;5024131;28;20386;-60
2021/03/29 12:28:50;;;;;;;;;;;12.80;67.70;;;;;;5024656;28;19917;-60
2021/03/29 12:31:16;;;;;;;;;;;12.90;67.80;;;;;;5020242;28;19953;-58
2021/03/29 12:33:41;;;;;;;;;;;13.00;68.00;;;;;;5023055;28;20371;-57
2021/03/29 12:36:07;;;;;;;;;;;13.00;67.90;;;;;;5018454;28;19917;-60
2021/03/29 12:38:34;;;;;;;;;;;13.10;67.90;;;;;;5026084;28;19927;-60
2021/03/29 12:41:02;;;;;;;;;;;13.20;68.10;;;;;;5022115;28;20012;-58
2021/03/29 12:43:52;;;;;;;;;;;13.20;67.90;;;;;;5021373;28;19913;-61
2021/03/29 12:46:19;;;;;;;;;;;13.30;67.90;;;;;;5020588;28;19940;-57
2021/03/29 12:48:44;;;;;;;;;;;13.40;67.70;;;;;;5024514;28;20003;-60
2021/03/29 12:51:12;;;;;;;;;;;13.40;67.60;;;;;;5024087;28;20345;-59
2021/03/29 12:53:37;;;;;;;;;;;13.50;67.40;;;;;;5024161;28;20380;-58
2021/03/29 12:56:04;;;;;;;;;;;13.60;67.30;;;;;;5024299;28;19917;-58
2021/03/29 12:58:31;;;;;;;;;;;13.60;66.90;;;;;;5022374;28;19921;-59
2021/03/29 13:00:57;;;;;;;;;;;13.70;67.00;;;;;;5023355;28;19957;-56
2021/03/29 13:03:29;;;;;;;;;;;13.70;66.70;;;;;;5018419;28;19956;-57
2021/03/29 13:08:59;;;;;;;;;;;13.90;65.10;;;;;;4979401;28;19939;-59
2021/03/29 13:11:29;;;;;;;;;;;14.00;63.30;;;;;;5021221;28;20348;-60
2021/03/29 13:13:55;;;;;;;;;;;14.20;61.20;;;;;;5004230;28;19999;-58
2021/03/29 13:16:21;;;;;;;;;;;14.30;61.20;;;;;;5023854;28;20050;-57
2021/03/29 13:18:47;;;;;;;;;;;14.40;60.20;;;;;;5006850;28;19920;-59
2021/03/29 13:21:12;;;;;;;;;;;14.50;59.50;;;;;;5024146;28;19914;-61
2021/03/29 13:23:38;;;;;;;;;;;14.60;58.30;;;;;;5036135;28;19964;-61
2021/03/29 13:26:04;;;;;;;;;;;14.70;58.60;;;;;;5024940;28;19925;-59
2021/03/29 13:28:30;;;;;;;;;;;14.80;58.00;;;;;;5006476;28;19956;-57
2021/03/29 13:30:55;;;;;;;;;;;14.90;57.60;;;;;;5024804;28;19964;-61
2021/03/29 13:33:20;;;;;;;;;;;15.10;56.80;;;;;;5023884;28;19917;-59
2021/03/29 13:35:46;;;;;;;;;;;15.10;56.90;;;;;;5020789;28;19914;-57
2021/03/29 13:38:12;;;;;;;;;;;15.20;56.30;;;;;;5021089;28;19921;-58
2021/03/29 13:40:37;;;;;;;;;;;15.30;55.80;;;;;;5022503;28;19921;-60
2021/03/29 13:43:03;;;;;;;;;;;15.40;55.70;;;;;;5041982;28;19933;-60
2021/03/29 13:45:28;;;;;;;;;;;15.50;54.90;;;;;;5023491;28;19925;-58
2021/03/29 13:47:54;;;;;;;;;;;15.60;53.60;;;;;;5025533;28;19971;-58
2021/03/29 13:50:20;;;;;;;;;;;15.70;54.10;;;;;;5024257;28;20012;-57
2021/03/29 13:52:47;;;;;;;;;;;15.80;53.10;;;;;;5021907;28;19921;-61
2021/03/29 13:55:16;;;;;;;;;;;15.80;52.70;;;;;;5008904;28;19913;-58
2021/03/29 13:57:42;;;;;;;;;;;15.90;52.90;;;;;;5008094;28;19928;-58
2021/03/29 14:00:08;;;;;;;;;;;16.00;52.80;;;;;;5008108;28;19917;-57
2021/03/29 14:02:39;;;;;;;;;;;16.00;52.30;;;;;;5024739;28;19917;-60
2021/03/29 14:05:04;;;;;;;;;;;16.00;52.30;;;;;;5020919;28;19962;-57
2021/03/29 14:07:30;;;;;;;;;;;16.10;52.00;;;;;;5021526;28;19917;-59
2021/03/29 14:09:56;;;;;;;;;;;16.20;52.30;;;;;;5008454;28;19956;-58
2021/03/29 14:12:24;;;;;;;;;;;16.30;51.80;;;;;;5021753;28;19979;-61
2021/03/29 14:14:50;;;;;;;;;;;16.30;51.60;;;;;;5007087;28;19920;-58
2021/03/29 14:17:15;;;;;;;;;;;16.40;51.50;;;;;;5021398;28;19913;-57
2021/03/29 14:19:41;;;;;;;;;;;16.50;50.80;;;;;;5005270;28;19921;-60
2021/03/29 14:22:07;;;;;;;;;;;16.50;50.80;;;;;;5021174;28;19913;-60
2021/03/29 14:24:32;;;;;;;;;;;16.50;51.10;;;;;;5025087;28;19963;-56
2021/03/29 14:26:57;;;;;;;;;;;16.60;51.00;;;;;;5023073;28;19917;-58
2021/03/29 14:29:23;;;;;;;;;;;16.60;50.20;;;;;;5027958;28;20597;-58
2021/03/29 14:31:48;;;;;;;;;;;16.70;50.00;;;;;;5027886;28;19928;-58
2021/03/29 14:34:20;;;;;;;;;;;16.80;50.70;;;;;;5029338;28;20356;-58
2021/03/29 14:41:47;;;;;;;;;;;16.90;49.50;;;;;;5027023;28;19913;-59